createdAt,value
2023-01-07T00:01:41.518Z,111.55
2023-01-07T00:04:13.738Z,108.80
2023-01-07T00:06:43.754Z,108.17
2023-01-07T00:09:15.852Z,109.10
2023-01-07T00:11:44.245Z,109.75
2023-01-07T00:14:14.072Z,119.45
2023-01-07T00:16:42.822Z,125.55
2023-01-07T00:19:14.630Z,127.70
2023-01-07T00:21:42.913Z,135.78
2023-01-07T00:24:12.042Z,143.22
2023-01-07T00:26:40.893Z,134.55
2023-01-07T00:29:09.103Z,97.05
2023-01-07T00:31:39.810Z,88.12
2023-01-07T00:34:08.846Z,111.95
2023-01-07T00:36:43.285Z,79.20
2023-01-07T00:39:19.376Z,74.35
2023-01-07T00:42:06.913Z,85.90
2023-01-07T00:44:37.186Z,76.70
2023-01-07T00:47:04.886Z,64.65
2023-01-07T00:49:32.689Z,69.37
2023-01-07T00:52:00.332Z,78.72
2023-01-07T00:54:28.182Z,80.83
2023-01-07T00:56:55.923Z,81.30
2023-01-07T00:59:23.582Z,77.75
2023-01-07T01:01:51.984Z,78.07
2023-01-07T01:04:19.558Z,77.75
2023-01-07T01:06:47.253Z,76.97
2023-01-07T01:09:14.965Z,73.05
2023-01-07T01:11:42.491Z,77.35
2023-01-07T01:14:11.356Z,83.78
2023-01-07T01:16:39.202Z,100.22
2023-01-07T01:19:07.327Z,95.77
2023-01-07T01:21:34.832Z,73.22
2023-01-07T01:24:02.307Z,60.55
2023-01-07T01:26:30.444Z,60.17
2023-01-07T01:28:58.114Z,53.52
2023-01-07T01:31:26.732Z,56.58
2023-01-07T01:33:56.348Z,61.48
2023-01-07T01:36:24.449Z,53.98
2023-01-07T01:38:52.931Z,50.35
2023-01-07T01:41:21.333Z,51.90
2023-01-07T01:43:51.413Z,48.50
2023-01-07T01:46:27.095Z,51.30
2023-01-07T01:49:02.762Z,47.35
2023-01-07T01:51:35.626Z,46.90
2023-01-07T01:54:07.610Z,43.28
2023-01-07T01:56:39.497Z,42.85
2023-01-07T01:59:12.980Z,61.63
2023-01-07T02:01:41.306Z,46.15
2023-01-07T02:04:16.300Z,42.38
2023-01-07T02:06:51.955Z,43.02
2023-01-07T02:09:27.991Z,42.98
2023-01-07T02:12:34.551Z,40.20
2023-01-07T02:15:40.455Z,35.98
2023-01-07T02:19:02.681Z,36.30
2023-01-07T02:22:07.276Z,34.03
2023-01-07T02:25:11.692Z,34.73
2023-01-07T02:27:59.487Z,36.83
2023-01-07T02:30:47.089Z,34.33
2023-01-07T02:33:39.704Z,31.52
2023-01-07T02:36:23.856Z,30.55
2023-01-07T02:39:09.278Z,35.68
2023-01-07T02:41:54.107Z,31.90
2023-01-07T02:44:42.992Z,34.30
2023-01-07T02:47:45.174Z,37.85
2023-01-07T02:50:13.545Z,56.68
2023-01-07T02:52:41.203Z,47.95
2023-01-07T02:55:14.455Z,46.37
2023-01-07T02:58:05.386Z,42.60
2023-01-07T03:00:50.937Z,40.03
2023-01-07T03:04:04.694Z,41.92
2023-01-07T03:07:12.860Z,37.03
2023-01-07T03:10:07.282Z,37.75
2023-01-07T03:15:20.138Z,30.15
2023-01-07T03:18:08.349Z,32.70
2023-01-07T03:20:38.955Z,33.25
2023-01-07T03:23:10.320Z,35.25
2023-01-07T03:25:45.118Z,31.57
2023-01-07T03:28:16.947Z,31.90
2023-01-07T03:30:47.679Z,29.87
2023-01-07T03:33:29.586Z,29.55
2023-01-07T03:36:00.141Z,47.95
2023-01-07T03:38:29.664Z,37.35
2023-01-07T03:40:59.264Z,31.37
2023-01-07T03:43:26.948Z,37.05
2023-01-07T03:45:57.765Z,50.48
2023-01-07T03:48:26.048Z,51.88
2023-01-07T03:50:53.766Z,43.68
2023-01-07T03:53:21.368Z,31.90
2023-01-07T03:55:52.489Z,27.98
2023-01-07T03:58:20.100Z,28.23
2023-01-07T04:00:47.723Z,27.58
2023-01-07T04:03:17.071Z,26.20
2023-01-07T04:05:46.525Z,29.77
2023-01-07T04:08:14.147Z,27.30
2023-01-07T04:10:43.322Z,25.95
2023-01-07T04:13:12.022Z,27.62
2023-01-07T04:15:42.113Z,25.72
2023-01-07T04:18:13.335Z,33.18
2023-01-07T04:20:55.940Z,35.05
2023-01-07T04:23:38.003Z,26.85
2023-01-07T04:26:07.960Z,29.72
2023-01-07T04:28:41.326Z,28.10
2023-01-07T04:31:16.651Z,24.40
2023-01-07T04:33:55.301Z,22.65
2023-01-07T04:36:35.522Z,23.18
2023-01-07T04:39:11.365Z,20.40
2023-01-07T04:41:50.355Z,21.30
2023-01-07T04:47:02.069Z,22.67
2023-01-07T04:49:41.330Z,23.05
2023-01-07T04:52:18.096Z,23.50
2023-01-07T04:54:53.297Z,22.60
2023-01-07T04:57:31.306Z,21.37
2023-01-07T05:00:06.692Z,25.15
2023-01-07T05:02:41.745Z,24.63
2023-01-07T05:05:10.931Z,27.82
2023-01-07T05:07:39.376Z,30.68
2023-01-07T05:10:08.018Z,26.45
2023-01-07T05:12:37.250Z,24.82
2023-01-07T05:15:07.048Z,22.07
2023-01-07T05:17:35.158Z,21.82
2023-01-07T05:20:06.073Z,22.10
2023-01-07T05:22:34.911Z,21.60
2023-01-07T05:25:03.811Z,19.90
2023-01-07T05:27:32.246Z,20.23
2023-01-07T05:30:00.280Z,20.70
2023-01-07T05:32:28.040Z,19.40
2023-01-07T05:34:57.224Z,18.40
2023-01-07T05:37:25.660Z,18.32
2023-01-07T05:39:53.640Z,18.92
2023-01-07T05:42:21.432Z,18.23
2023-01-07T05:44:50.167Z,16.90
2023-01-07T05:47:17.934Z,17.70
2023-01-07T05:49:45.359Z,17.23
2023-01-07T05:52:13.073Z,20.00
2023-01-07T05:54:41.076Z,21.87
2023-01-07T05:57:08.765Z,21.27
2023-01-07T05:59:36.591Z,17.42
2023-01-07T06:02:04.403Z,19.80
2023-01-07T06:04:33.652Z,19.23
2023-01-07T06:07:01.347Z,17.70
2023-01-07T06:09:30.766Z,17.87
2023-01-07T06:11:58.566Z,17.80
2023-01-07T06:14:26.276Z,16.80
2023-01-07T06:16:53.891Z,19.70
2023-01-07T06:19:22.458Z,19.95
2023-01-07T06:21:50.147Z,17.45
2023-01-07T06:24:17.900Z,18.50
2023-01-07T06:26:45.440Z,16.05
2023-01-07T06:29:13.385Z,16.95
2023-01-07T06:31:41.285Z,17.07
2023-01-07T06:34:08.820Z,16.67
2023-01-07T06:36:36.638Z,19.25
2023-01-07T06:39:04.697Z,22.40
2023-01-07T06:41:32.503Z,17.52
2023-01-07T06:44:00.156Z,18.87
2023-01-07T06:46:28.089Z,19.20
2023-01-07T06:48:55.907Z,23.45
2023-01-07T06:51:23.547Z,24.15
2023-01-07T06:53:51.162Z,30.23
2023-01-07T06:56:18.945Z,32.03
2023-01-07T06:58:46.404Z,29.50
2023-01-07T07:01:14.233Z,32.88
2023-01-07T07:03:41.966Z,27.10
2023-01-07T07:06:09.470Z,28.75
2023-01-07T07:08:37.347Z,29.18
2023-01-07T07:11:05.097Z,26.73
2023-01-07T07:13:32.574Z,28.55
2023-01-07T07:16:00.384Z,30.62
2023-01-07T07:18:28.041Z,29.85
2023-01-07T07:20:57.911Z,31.35
2023-01-07T07:23:25.925Z,28.73
2023-01-07T07:25:53.450Z,25.50
2023-01-07T07:28:21.018Z,22.60
2023-01-07T07:30:48.590Z,23.98
2023-01-07T07:33:18.100Z,21.90
2023-01-07T07:35:47.057Z,23.12
2023-01-07T07:38:17.137Z,26.07
2023-01-07T07:40:45.762Z,23.35
2023-01-07T07:43:14.927Z,24.05
2023-01-07T07:45:43.242Z,28.73
2023-01-07T07:48:14.216Z,28.77
2023-01-07T07:50:42.709Z,28.62
2023-01-07T07:53:10.979Z,28.50
2023-01-07T07:55:39.451Z,29.65
2023-01-07T07:58:07.239Z,29.35
2023-01-07T08:00:35.269Z,29.32
2023-01-07T08:03:05.497Z,26.00
2023-01-07T08:05:33.024Z,30.10
2023-01-07T08:08:00.774Z,42.50
2023-01-07T08:10:29.406Z,44.70
2023-01-07T08:12:57.306Z,48.87
2023-01-07T08:15:25.114Z,44.10
2023-01-07T08:18:01.492Z,43.33
2023-01-07T08:20:29.172Z,40.48
2023-01-07T08:23:01.819Z,46.90
2023-01-07T08:25:33.245Z,46.58
2023-01-07T08:28:01.703Z,51.83
2023-01-07T08:30:30.177Z,43.60
2023-01-07T08:32:58.524Z,38.63
2023-01-07T08:35:26.545Z,30.90
2023-01-07T08:38:07.880Z,32.13
2023-01-07T08:40:36.903Z,37.42
2023-01-07T08:43:07.462Z,43.58
2023-01-07T08:45:35.343Z,41.75
2023-01-07T08:48:03.530Z,45.48
2023-01-07T08:50:33.349Z,41.20
2023-01-07T08:53:01.452Z,37.85
2023-01-07T08:55:28.971Z,36.98
2023-01-07T08:57:57.152Z,38.20
2023-01-07T09:00:25.631Z,44.83
2023-01-07T09:02:53.235Z,38.33
2023-01-07T09:05:21.671Z,39.65
2023-01-07T09:07:53.994Z,40.17
2023-01-07T09:10:22.136Z,44.55
2023-01-07T09:12:49.989Z,47.15
2023-01-07T09:15:20.510Z,47.78
2023-01-07T09:17:47.960Z,42.58
2023-01-07T09:20:16.365Z,43.45
2023-01-07T09:22:44.102Z,39.38
2023-01-07T09:25:11.853Z,31.87
2023-01-07T09:27:40.859Z,30.57
2023-01-07T09:30:09.606Z,32.58
2023-01-07T09:32:37.427Z,30.92
2023-01-07T09:35:06.859Z,32.73
2023-01-07T09:37:34.529Z,34.63
2023-01-07T09:40:05.214Z,32.58
2023-01-07T09:45:43.313Z,27.05
2023-01-07T09:48:25.529Z,23.18
2023-01-07T09:51:01.153Z,21.37
2023-01-07T09:53:54.484Z,18.40
2023-01-07T09:56:29.398Z,21.17
2023-01-07T09:59:00.235Z,25.35
2023-01-07T10:01:57.133Z,28.35
2023-01-07T10:04:42.287Z,24.65
2023-01-07T10:07:35.507Z,18.70
2023-01-07T10:10:30.037Z,12.37
2023-01-07T10:13:22.968Z,11.00
2023-01-07T10:16:23.648Z,18.85
2023-01-07T10:19:04.584Z,23.18
2023-01-07T10:21:43.302Z,24.57
2023-01-07T10:24:22.363Z,30.08
2023-01-07T10:26:55.040Z,22.70
2023-01-07T10:29:31.348Z,17.52
2023-01-07T10:32:07.514Z,18.82
2023-01-07T10:34:40.605Z,12.28
2023-01-07T10:37:16.415Z,10.85
2023-01-07T10:40:13.704Z,11.93
2023-01-07T10:43:12.539Z,10.50
2023-01-07T10:45:51.634Z,10.70
2023-01-07T10:48:33.567Z,12.82
2023-01-07T10:51:15.006Z,11.78
2023-01-07T10:54:22.827Z,13.80
2023-01-07T10:56:56.715Z,17.23
2023-01-07T10:59:25.542Z,15.45
2023-01-07T11:01:57.068Z,14.00
2023-01-07T11:04:26.093Z,16.02
2023-01-07T11:07:29.420Z,12.18
2023-01-07T11:10:01.908Z,19.07
2023-01-07T11:12:46.584Z,28.10
2023-01-07T11:15:36.500Z,18.17
2023-01-07T11:18:15.061Z,16.82
2023-01-07T11:20:53.407Z,13.68
2023-01-07T11:23:42.753Z,14.60
2023-01-07T11:26:30.043Z,14.70
2023-01-07T11:29:17.560Z,19.60
2023-01-07T11:31:55.676Z,17.48
2023-01-07T11:34:34.246Z,18.27
2023-01-07T11:37:03.599Z,23.98
2023-01-07T11:39:36.820Z,28.15
2023-01-07T11:42:36.582Z,18.57
2023-01-07T11:45:23.792Z,14.35
2023-01-07T11:48:29.690Z,12.18
2023-01-07T11:51:04.584Z,12.33
2023-01-07T11:53:44.755Z,13.35
2023-01-07T11:56:22.914Z,10.20
2023-01-07T11:59:17.492Z,13.18
2023-01-07T12:01:53.353Z,14.68
2023-01-07T12:04:30.926Z,14.00
2023-01-07T12:07:06.293Z,14.05
2023-01-07T12:09:38.158Z,14.73
2023-01-07T12:12:33.476Z,16.75
2023-01-07T12:15:18.529Z,15.30
2023-01-07T12:17:50.756Z,13.98
2023-01-07T12:20:50.271Z,20.48
2023-01-07T12:23:37.929Z,18.73
2023-01-07T12:26:16.061Z,11.95
2023-01-07T12:29:11.803Z,10.68
2023-01-07T12:31:56.602Z,11.28
2023-01-07T12:34:55.553Z,15.48
2023-01-07T12:37:38.115Z,15.00
2023-01-07T12:40:20.446Z,15.03
2023-01-07T12:43:05.346Z,16.85
2023-01-07T12:45:56.850Z,15.43
2023-01-07T12:48:44.751Z,39.83
2023-01-07T12:51:29.876Z,30.52
2023-01-07T12:54:17.635Z,18.23
2023-01-07T12:56:53.690Z,15.78
2023-01-07T12:59:46.719Z,17.27
2023-01-07T13:02:37.526Z,17.42
2023-01-07T13:05:21.880Z,17.98
2023-01-07T13:08:03.386Z,14.13
2023-01-07T13:10:41.863Z,14.95
2023-01-07T13:13:24.411Z,15.28
2023-01-07T13:15:53.316Z,16.67
2023-01-07T13:18:21.225Z,20.62
2023-01-07T13:21:08.284Z,18.20
2023-01-07T13:24:09.282Z,18.15
2023-01-07T13:26:57.319Z,17.90
2023-01-07T13:30:02.261Z,22.70
2023-01-07T13:32:47.457Z,17.60
2023-01-07T13:35:43.323Z,19.23
2023-01-07T13:38:51.789Z,17.80
2023-01-07T13:41:51.262Z,24.15
2023-01-07T13:45:03.822Z,22.15
2023-01-07T13:47:53.387Z,26.25
2023-01-07T13:50:29.702Z,21.82
2023-01-07T13:53:07.368Z,19.20
2023-01-07T13:55:40.020Z,20.55
2023-01-07T13:58:37.084Z,16.73
2023-01-07T14:01:12.007Z,17.23
2023-01-07T14:03:49.610Z,17.20
2023-01-07T14:06:29.413Z,30.02
2023-01-07T14:09:10.717Z,24.00
2023-01-07T14:12:03.755Z,23.47
2023-01-07T14:14:57.863Z,28.73
2023-01-07T14:20:46.728Z,34.85
2023-01-07T14:23:25.731Z,29.05
2023-01-07T14:26:31.116Z,29.32
2023-01-07T14:29:19.400Z,31.75
2023-01-07T14:31:47.159Z,34.13
2023-01-07T14:34:24.269Z,49.63
2023-01-07T14:37:14.672Z,36.40
2023-01-07T14:39:45.107Z,33.55
2023-01-07T14:42:26.203Z,34.63
2023-01-07T14:44:53.827Z,34.60
2023-01-07T14:47:51.984Z,29.27
2023-01-07T14:50:37.321Z,27.77
2023-01-07T14:53:22.081Z,30.17
2023-01-07T14:56:12.538Z,29.30
2023-01-07T14:59:02.133Z,33.75
2023-01-07T15:02:10.594Z,27.40
2023-01-07T15:05:11.029Z,33.30
2023-01-07T15:07:40.684Z,37.15
2023-01-07T15:10:49.157Z,33.88
2023-01-07T15:13:37.659Z,32.73
2023-01-07T15:16:09.903Z,33.02
2023-01-07T15:18:50.959Z,31.65
2023-01-07T15:22:02.342Z,35.68
2023-01-07T15:24:56.499Z,42.53
2023-01-07T15:27:50.862Z,65.22
2023-01-07T15:31:02.528Z,66.45
2023-01-07T15:34:01.873Z,147.70
2023-01-07T15:36:31.461Z,106.80
2023-01-07T15:39:02.745Z,104.47
2023-01-07T15:41:35.894Z,64.42
2023-01-07T15:44:17.956Z,56.65
2023-01-07T15:46:45.536Z,51.02
2023-01-07T15:49:23.279Z,52.45
2023-01-07T15:51:57.435Z,59.50
2023-01-07T15:54:38.915Z,89.75
2023-01-07T15:57:31.372Z,86.78
2023-01-07T15:59:59.019Z,83.42
2023-01-07T16:02:37.456Z,90.10
2023-01-07T16:05:06.528Z,122.95
2023-01-07T16:07:52.478Z,127.80
2023-01-07T16:10:32.634Z,98.05
2023-01-07T16:13:04.484Z,104.80
2023-01-07T16:15:36.496Z,89.65
2023-01-07T16:18:16.057Z,86.50
2023-01-07T16:20:58.305Z,87.02
2023-01-07T16:23:33.690Z,81.60
2023-01-07T16:26:06.091Z,82.53
2023-01-07T16:28:54.096Z,76.67
2023-01-07T16:31:25.813Z,77.97
2023-01-07T16:33:57.282Z,68.67
2023-01-07T16:36:36.056Z,74.00
2023-01-07T16:39:08.960Z,88.58
2023-01-07T16:41:37.040Z,94.97
2023-01-07T16:44:04.910Z,78.42
2023-01-07T16:46:37.890Z,74.47
2023-01-07T16:49:28.422Z,78.85
2023-01-07T16:52:15.058Z,63.98
2023-01-07T16:54:44.034Z,74.42
2023-01-07T16:57:17.201Z,78.17
2023-01-07T16:59:54.946Z,101.72
2023-01-07T17:02:58.915Z,71.33
2023-01-07T17:08:05.026Z,66.37
2023-01-07T17:10:36.251Z,81.97
2023-01-07T17:13:17.170Z,86.15
2023-01-07T17:15:44.458Z,83.72
2023-01-07T17:18:20.029Z,83.12
2023-01-07T17:20:51.787Z,86.67
2023-01-07T17:23:31.934Z,82.35
2023-01-07T17:26:12.806Z,96.82
2023-01-07T17:28:48.406Z,107.97
2023-01-07T17:31:16.430Z,130.20
2023-01-07T17:33:44.468Z,185.05
2023-01-07T17:36:21.899Z,196.05
2023-01-07T17:38:49.770Z,130.07
2023-01-07T17:41:41.798Z,171.35
2023-01-07T17:44:12.408Z,111.90
2023-01-07T17:46:41.303Z,120.22
2023-01-07T17:49:11.524Z,90.55
2023-01-07T17:51:42.403Z,102.07
2023-01-07T17:54:20.065Z,83.95
2023-01-07T17:56:48.106Z,86.72
2023-01-07T17:59:18.875Z,93.15
2023-01-07T18:01:46.966Z,93.35
2023-01-07T18:04:14.687Z,84.42
2023-01-07T18:06:43.142Z,88.62
2023-01-07T18:09:12.928Z,93.85
2023-01-07T18:12:02.483Z,111.00
2023-01-07T18:14:31.935Z,129.60
2023-01-07T18:16:59.760Z,129.30
2023-01-07T18:19:27.492Z,111.52
2023-01-07T18:21:55.002Z,121.30
2023-01-07T18:24:22.602Z,128.12
2023-01-07T18:26:50.303Z,93.50
2023-01-07T18:29:17.839Z,82.17
2023-01-07T18:31:45.668Z,74.72
2023-01-07T18:34:15.023Z,90.50
2023-01-07T18:36:42.589Z,94.37
2023-01-07T18:39:17.536Z,91.05
2023-01-07T18:41:45.135Z,105.80
2023-01-07T18:44:12.578Z,80.67
2023-01-07T18:46:40.373Z,67.67
2023-01-07T18:49:09.399Z,76.22
2023-01-07T18:51:37.757Z,74.07
2023-01-07T18:54:05.889Z,73.85
2023-01-07T18:56:33.433Z,86.90
2023-01-07T18:59:00.899Z,79.25
2023-01-07T19:01:31.672Z,67.62
2023-01-07T19:03:59.631Z,67.30
2023-01-07T19:06:27.455Z,62.38
2023-01-07T19:08:55.965Z,61.70
2023-01-07T19:11:23.647Z,59.53
2023-01-07T19:13:51.085Z,56.23
2023-01-07T19:16:19.196Z,59.27
2023-01-07T19:18:46.994Z,62.60
2023-01-07T19:21:14.740Z,63.78
2023-01-07T19:23:42.432Z,68.62
2023-01-07T19:26:11.489Z,75.67
2023-01-07T19:28:39.080Z,73.75
2023-01-07T19:31:09.150Z,73.97
2023-01-07T19:33:37.521Z,73.65
2023-01-07T19:36:13.301Z,79.10
2023-01-07T19:38:44.088Z,70.57
2023-01-07T19:41:18.769Z,67.95
2023-01-07T19:43:47.759Z,64.15
2023-01-07T19:46:16.000Z,68.22
2023-01-07T19:48:48.910Z,76.20
2023-01-07T19:51:16.757Z,87.42
2023-01-07T19:53:46.693Z,86.65
2023-01-07T19:56:14.233Z,87.22
2023-01-07T19:58:42.162Z,94.07
2023-01-07T20:01:17.261Z,83.00
2023-01-07T20:03:45.343Z,85.50
2023-01-07T20:06:16.211Z,66.25
2023-01-07T20:08:44.755Z,65.08
2023-01-07T20:11:13.560Z,72.05
2023-01-07T20:13:43.042Z,74.22
2023-01-07T20:16:15.035Z,72.90
2023-01-07T20:18:46.127Z,72.58
2023-01-07T20:21:16.526Z,80.30
2023-01-07T20:23:44.599Z,85.62
2023-01-07T20:26:16.559Z,80.30
2023-01-07T20:28:44.894Z,86.00
2023-01-07T20:31:15.226Z,85.75
2023-01-07T20:33:44.889Z,80.77
2023-01-07T20:36:18.837Z,75.87
2023-01-07T20:38:47.382Z,77.15
2023-01-07T20:41:19.715Z,74.40
2023-01-07T20:43:57.980Z,72.12
2023-01-07T20:46:27.778Z,69.53
2023-01-07T20:48:56.711Z,71.37
2023-01-07T20:51:24.479Z,75.25
2023-01-07T20:53:52.514Z,64.45
2023-01-07T20:56:22.759Z,58.25
2023-01-07T20:58:51.176Z,58.55
2023-01-07T21:01:21.240Z,69.92
2023-01-07T21:03:49.588Z,78.75
2023-01-07T21:06:19.143Z,78.62
2023-01-07T21:08:48.103Z,79.80
2023-01-07T21:11:20.221Z,62.50
2023-01-07T21:13:49.245Z,61.63
2023-01-07T21:16:17.629Z,75.10
2023-01-07T21:18:45.232Z,71.12
2023-01-07T21:21:23.464Z,123.07
2023-01-07T21:23:52.981Z,93.27
2023-01-07T21:26:23.336Z,62.03
2023-01-07T21:28:55.296Z,56.88
2023-01-07T21:31:24.165Z,57.88
2023-01-07T21:33:55.757Z,63.45
2023-01-07T21:36:25.126Z,63.28
2023-01-07T21:38:56.881Z,63.05
2023-01-07T21:41:26.000Z,67.72
2023-01-07T21:43:54.130Z,72.45
2023-01-07T21:46:22.083Z,64.80
2023-01-07T21:48:51.243Z,64.00
2023-01-07T21:51:25.564Z,59.58
2023-01-07T21:53:55.931Z,57.35
2023-01-07T21:56:28.129Z,55.38
2023-01-07T21:58:55.446Z,53.60
2023-01-07T22:01:25.023Z,56.98
2023-01-07T22:03:53.057Z,57.83
2023-01-07T22:06:27.593Z,55.48
2023-01-07T22:08:58.600Z,47.67
2023-01-07T22:11:26.740Z,44.67
2023-01-07T22:13:57.556Z,54.53
2023-01-07T22:16:28.453Z,51.73
2023-01-07T22:18:56.962Z,61.50
2023-01-07T22:21:24.802Z,64.37
2023-01-07T22:23:52.223Z,53.05
2023-01-07T22:26:20.757Z,53.13
2023-01-07T22:28:57.932Z,49.60
2023-01-07T22:31:32.375Z,61.15
2023-01-07T22:34:00.188Z,50.63
2023-01-07T22:36:33.258Z,31.52
2023-01-07T22:39:09.758Z,27.62
2023-01-07T22:41:37.881Z,24.30
2023-01-07T22:44:10.320Z,24.52
2023-01-07T22:46:39.517Z,23.50
2023-01-07T22:49:07.151Z,28.05
2023-01-07T22:51:39.540Z,43.15
2023-01-07T22:54:08.293Z,44.42
2023-01-07T22:56:36.117Z,48.38
2023-01-07T22:59:03.825Z,56.02
2023-01-07T23:01:31.548Z,93.30
2023-01-07T23:03:59.418Z,94.80
2023-01-07T23:06:27.324Z,95.25
2023-01-07T23:08:54.929Z,88.20
2023-01-07T23:11:41.030Z,71.50
2023-01-07T23:14:08.927Z,66.67
2023-01-07T23:16:37.327Z,70.78
2023-01-07T23:19:05.467Z,77.45
2023-01-07T23:21:33.865Z,87.30
2023-01-07T23:24:01.425Z,78.95
2023-01-07T23:26:28.899Z,73.42
2023-01-07T23:28:56.807Z,73.95
2023-01-07T23:31:24.689Z,70.75
2023-01-07T23:33:52.325Z,65.83
2023-01-07T23:36:19.674Z,52.85
2023-01-07T23:38:47.812Z,47.17
2023-01-07T23:41:15.702Z,46.65
2023-01-07T23:43:43.309Z,45.25
2023-01-07T23:46:11.695Z,46.15
2023-01-07T23:48:39.530Z,49.75
2023-01-07T23:51:13.963Z,52.17
2023-01-07T23:53:42.143Z,52.20
2023-01-07T23:56:09.717Z,52.10
2023-01-07T23:58:38.274Z,50.75
